createdAt,value
2018-04-06T10:24:32.571Z,1019.85
2018-04-06T10:25:13.130Z,1019.86
2018-04-06T10:25:53.696Z,1019.85
2018-04-06T10:26:34.310Z,1019.85
2018-04-06T10:27:14.856Z,1019.83
2018-04-06T10:27:55.436Z,1019.79
2018-04-06T10:28:36.037Z,1019.79
2018-04-06T10:29:16.637Z,1019.74
2018-04-06T10:29:57.244Z,1019.75
2018-04-06T10:30:37.838Z,1019.73
2018-04-06T10:31:18.446Z,1019.72
2018-04-06T10:31:58.998Z,1019.71
2018-04-06T10:32:39.573Z,1019.67
2018-04-06T10:33:20.189Z,1019.65
2018-04-06T10:34:00.705Z,1019.68
2018-04-06T10:34:41.264Z,1019.68
2018-04-06T10:35:21.836Z,1019.67
2018-04-06T10:36:02.392Z,1019.65
2018-04-06T10:36:43.027Z,1019.65
2018-04-06T10:37:23.589Z,1019.64
2018-04-06T10:38:04.339Z,1019.67
2018-04-06T10:38:44.908Z,1019.66
2018-04-06T10:39:25.475Z,1019.68
2018-04-06T10:40:06.331Z,1019.7
2018-04-06T10:40:46.908Z,1019.69
2018-04-06T10:41:27.517Z,1019.73
2018-04-06T10:42:08.098Z,1019.68
2018-04-06T10:42:48.687Z,1019.67
2018-04-06T10:43:29.262Z,1019.7
2018-04-06T10:44:09.823Z,1019.69
2018-04-06T10:44:50.386Z,1019.71
2018-04-06T10:45:30.996Z,1019.69
2018-04-06T10:46:11.554Z,1019.65
2018-04-06T10:46:52.181Z,1019.64
2018-04-06T10:47:32.682Z,1019.64
2018-04-06T10:48:13.264Z,1019.69
2018-04-06T10:48:53.839Z,1019.68
2018-04-06T10:49:34.447Z,1019.7
2018-04-06T10:50:15.110Z,1019.65
2018-04-06T10:50:55.721Z,1019.66
2018-04-06T10:51:36.275Z,1019.6
2018-04-06T10:52:16.843Z,1019.66
2018-04-06T10:52:57.438Z,1019.65
2018-04-06T10:53:38.021Z,1019.62
2018-04-06T10:54:18.610Z,1019.69
2018-04-06T10:54:59.205Z,1019.67
2018-04-06T10:55:39.762Z,1019.68
2018-04-06T10:56:20.316Z,1019.68
2018-04-06T10:57:00.882Z,1019.64
2018-04-06T10:57:41.593Z,1019.63
2018-04-06T10:58:22.284Z,1019.62
2018-04-06T10:59:03.018Z,1019.62
2018-04-06T10:59:43.619Z,1019.59
2018-04-06T11:00:24.483Z,1019.6
2018-04-06T11:01:05.054Z,1019.61
2018-04-06T11:01:45.596Z,1019.58
2018-04-06T11:02:26.147Z,1019.55
2018-04-06T11:03:06.732Z,1019.6
2018-04-06T11:03:47.323Z,1019.59
2018-04-06T11:04:27.881Z,1019.62
2018-04-06T11:05:08.450Z,1019.59
2018-04-06T11:05:49.013Z,1019.59
2018-04-06T11:06:29.748Z,1019.58
2018-04-06T11:07:10.307Z,1019.6
2018-04-06T11:07:50.878Z,1019.58
2018-04-06T11:08:31.456Z,1019.58
2018-04-06T11:09:12.006Z,1019.62
2018-04-06T11:09:52.613Z,1019.59
2018-04-06T11:10:33.125Z,1019.6
2018-04-06T11:11:13.682Z,1019.59
2018-04-06T11:11:54.270Z,1019.55
2018-04-06T11:12:34.833Z,1019.6
2018-04-06T11:13:15.393Z,1019.58
2018-04-06T11:13:55.961Z,1019.57
2018-04-06T11:14:36.513Z,1019.56
2018-04-06T11:15:17.073Z,1019.59
2018-04-06T11:15:57.630Z,1019.6
2018-04-06T11:16:38.264Z,1019.57
2018-04-06T11:17:18.827Z,1019.58
2018-04-06T11:17:59.387Z,1019.57
2018-04-06T11:18:39.976Z,1019.58
2018-04-06T11:19:20.556Z,1019.58
2018-04-06T11:20:01.192Z,1019.57
2018-04-06T11:20:41.902Z,1019.56
2018-04-06T11:21:22.484Z,1019.56
2018-04-06T11:22:03.055Z,1019.55
2018-04-06T11:22:43.650Z,1019.58
2018-04-06T11:23:24.205Z,1019.58
2018-04-06T11:24:04.788Z,1019.55
2018-04-06T11:24:45.356Z,1019.62
2018-04-06T11:25:25.911Z,1019.54
2018-04-06T11:26:06.462Z,1019.61
2018-04-06T11:26:47.031Z,1019.61
2018-04-06T11:27:27.606Z,1019.6
2018-04-06T11:28:08.197Z,1019.6
2018-04-06T11:28:48.778Z,1019.61
2018-04-06T11:29:29.353Z,1019.6
2018-04-06T11:30:09.931Z,1019.6
2018-04-06T11:30:50.487Z,1019.6
2018-04-06T11:31:31.047Z,1019.56
2018-04-06T11:32:11.625Z,1019.63
2018-04-06T11:32:52.171Z,1019.59
2018-04-06T11:33:32.730Z,1019.57
2018-04-06T11:34:13.286Z,1019.59
2018-04-06T11:34:53.883Z,1019.56
2018-04-06T11:35:34.436Z,1019.61
2018-04-06T11:36:15.002Z,1019.56
2018-04-06T11:36:55.556Z,1019.53
2018-04-06T11:37:36.130Z,1019.56
2018-04-06T11:38:16.678Z,1019.58
2018-04-06T11:38:57.262Z,1019.55
2018-04-06T11:39:37.828Z,1019.55
2018-04-06T11:40:18.375Z,1019.55
2018-04-06T11:40:58.935Z,1019.56
2018-04-06T11:41:39.485Z,1019.57
2018-04-06T11:42:20.048Z,1019.59
2018-04-06T11:43:00.629Z,1019.56
2018-04-06T11:43:41.183Z,1019.52
2018-04-06T11:44:21.748Z,1019.57
2018-04-06T11:45:02.296Z,1019.52
2018-04-06T11:45:42.858Z,1019.53
2018-04-06T11:46:23.425Z,1019.56
2018-04-06T11:47:03.986Z,1019.52
2018-04-06T11:47:44.584Z,1019.55
2018-04-06T11:48:25.256Z,1019.53
2018-04-06T11:49:06.046Z,1019.54
2018-04-06T11:49:46.702Z,1019.51
2018-04-06T11:50:27.264Z,1019.53
2018-04-06T11:51:07.835Z,1019.55
2018-04-06T11:51:48.421Z,1019.61
2018-04-06T11:52:29.041Z,1019.57
2018-04-06T11:53:09.613Z,1019.53
2018-04-06T11:53:50.231Z,1019.52
2018-04-06T11:54:30.794Z,1019.55
2018-04-06T11:55:11.373Z,1019.51
2018-04-06T11:55:51.964Z,1019.52
2018-04-06T11:56:32.514Z,1019.54
2018-04-06T11:57:13.144Z,1019.53
2018-04-06T11:57:53.751Z,1019.55
2018-04-06T11:58:34.475Z,1019.56
2018-04-06T11:59:15.047Z,1019.55
2018-04-06T11:59:55.854Z,1019.5
2018-04-06T12:00:36.678Z,1019.52
2018-04-06T12:01:17.387Z,1019.5
2018-04-06T12:01:57.957Z,1019.5
2018-04-06T12:02:38.537Z,1019.5
2018-04-06T12:03:19.104Z,1019.46
2018-04-06T12:03:59.656Z,1019.46
2018-04-06T12:04:40.222Z,1019.41
2018-04-06T12:05:20.781Z,1019.42
2018-04-06T12:06:01.423Z,1019.42
2018-04-06T12:06:42.022Z,1019.42
2018-04-06T12:07:22.595Z,1019.42
2018-04-06T12:08:03.191Z,1019.41
2018-04-06T12:08:43.764Z,1019.39
2018-04-06T12:09:24.319Z,1019.44
2018-04-06T12:10:04.876Z,1019.47
2018-04-06T12:10:45.459Z,1019.46
2018-04-06T12:11:26.024Z,1019.43
2018-04-06T12:12:06.592Z,1019.43
2018-04-06T12:12:47.189Z,1019.46
2018-04-06T12:13:27.780Z,1019.41
2018-04-06T12:14:08.375Z,1019.46
2018-04-06T12:14:48.938Z,1019.46
2018-04-06T12:15:29.507Z,1019.46
2018-04-06T12:16:10.084Z,1019.47
2018-04-06T12:16:50.648Z,1019.48
2018-04-06T12:17:31.209Z,1019.49
2018-04-06T12:18:11.777Z,1019.47
2018-04-06T12:18:52.342Z,1019.48
2018-04-06T12:19:32.897Z,1019.52
2018-04-06T12:20:13.473Z,1019.52
2018-04-06T12:20:54.041Z,1019.46
2018-04-06T12:21:34.995Z,1019.53
2018-04-06T12:22:15.607Z,1019.53
2018-04-06T12:22:56.186Z,1019.51
2018-04-06T12:23:36.749Z,1019.49
2018-04-06T12:24:17.342Z,1019.48
2018-04-06T12:24:57.911Z,1019.43
2018-04-06T12:25:38.471Z,1019.46
2018-04-06T12:26:19.081Z,1019.45
2018-04-06T12:26:59.676Z,1019.46
2018-04-06T12:27:40.287Z,1019.49
2018-04-06T12:28:20.869Z,1019.47
2018-04-06T12:29:01.435Z,1019.47
2018-04-06T12:29:41.987Z,1019.51
2018-04-06T12:30:22.547Z,1019.46
2018-04-06T12:31:03.118Z,1019.42
2018-04-06T12:31:43.686Z,1019.42
2018-04-06T12:32:24.232Z,1019.43
2018-04-06T12:33:04.795Z,1019.43
2018-04-06T12:33:45.373Z,1019.45
2018-04-06T12:34:26.019Z,1019.44
2018-04-06T12:35:06.588Z,1019.4
2018-04-06T12:35:47.155Z,1019.44
2018-04-06T12:36:27.716Z,1019.44
2018-04-06T12:37:08.521Z,1019.45
2018-04-06T12:37:49.216Z,1019.42
2018-04-06T12:38:29.777Z,1019.42
2018-04-06T12:39:10.329Z,1019.39
2018-04-06T12:39:50.898Z,1019.38
2018-04-06T12:40:31.675Z,1019.36
2018-04-06T12:41:12.730Z,1019.32
2018-04-06T12:41:53.523Z,1019.36
2018-04-06T12:42:34.347Z,1019.37
2018-04-06T12:43:14.989Z,1019.35
2018-04-06T12:43:55.926Z,1019.35
2018-04-06T12:44:37.229Z,1019.33
2018-04-06T12:45:18.312Z,1019.36
2018-04-06T12:45:58.992Z,1019.33
2018-04-06T12:46:39.935Z,1019.31
2018-04-06T12:47:20.572Z,1019.31
2018-04-06T12:48:01.119Z,1019.35
2018-04-06T12:48:41.805Z,1019.34
2018-04-06T12:49:22.688Z,1019.35
2018-04-06T12:50:03.499Z,1019.38
2018-04-06T12:50:44.056Z,1019.43
2018-04-06T12:51:24.613Z,1019.43
2018-04-06T12:52:05.163Z,1019.36
2018-04-06T12:52:45.731Z,1019.34
2018-04-06T12:53:26.301Z,1019.4
2018-04-06T12:54:06.891Z,1019.35
2018-04-06T12:54:47.509Z,1019.4
2018-04-06T12:55:28.158Z,1019.41
2018-04-06T12:56:08.830Z,1019.41
2018-04-06T12:56:49.392Z,1019.36
2018-04-06T12:57:29.957Z,1019.41
2018-04-06T12:58:10.566Z,1019.38
2018-04-06T12:58:51.371Z,1019.39
2018-04-06T12:59:31.915Z,1019.42
2018-04-06T13:00:12.477Z,1019.39
2018-04-06T13:00:53.088Z,1019.42
2018-04-06T13:01:33.726Z,1019.4
2018-04-06T13:02:14.378Z,1019.33
2018-04-06T13:02:54.950Z,1019.31
2018-04-06T13:03:35.512Z,1019.34
2018-04-06T13:04:16.070Z,1019.34
2018-04-06T13:04:56.640Z,1019.3
2018-04-06T13:05:37.209Z,1019.27
2018-04-06T13:06:17.802Z,1019.3
2018-04-06T13:06:58.374Z,1019.31
2018-04-06T13:07:38.966Z,1019.33
2018-04-06T13:08:19.612Z,1019.31
2018-04-06T13:09:00.202Z,1019.32
2018-04-06T13:09:40.883Z,1019.3
2018-04-06T13:10:21.494Z,1019.33
2018-04-06T13:11:02.014Z,1019.28
2018-04-06T13:11:42.577Z,1019.3
2018-04-06T13:12:23.176Z,1019.27
2018-04-06T13:13:03.866Z,1019.25
2018-04-06T13:13:44.433Z,1019.19
2018-04-06T13:14:25.027Z,1019.21
2018-04-06T13:15:05.634Z,1019.21
2018-04-06T13:15:46.209Z,1019.19
2018-04-06T13:16:26.775Z,1019.18
2018-04-06T13:17:07.346Z,1019.21
2018-04-06T13:17:47.962Z,1019.17
2018-04-06T13:18:28.528Z,1019.14
2018-04-06T13:19:09.108Z,1019.17
2018-04-06T13:19:49.677Z,1019.18
2018-04-06T13:20:30.242Z,1019.15
2018-04-06T13:21:10.804Z,1019.12
2018-04-06T13:21:51.436Z,1019.12
2018-04-06T13:22:31.996Z,1019.14
2018-04-06T13:23:12.600Z,1019.13
2018-04-06T13:23:53.191Z,1019.18
2018-04-06T13:24:33.834Z,1019.13
2018-04-06T13:25:14.416Z,1019.13
2018-04-06T13:25:54.978Z,1019.14
2018-04-06T13:26:35.550Z,1019.13
2018-04-06T13:27:16.195Z,1019.16
2018-04-06T13:27:56.776Z,1019.15
2018-04-06T13:28:37.354Z,1019.18
2018-04-06T13:29:17.922Z,1019.19
2018-04-06T13:29:58.485Z,1019.17
2018-04-06T13:30:39.067Z,1019.17
2018-04-06T13:31:19.660Z,1019.16
2018-04-06T13:32:00.326Z,1019.14
2018-04-06T13:32:40.911Z,1019.13
2018-04-06T13:33:21.464Z,1019.23
2018-04-06T13:34:02.025Z,1019.17
2018-04-06T13:34:42.584Z,1019.17
2018-04-06T13:35:23.158Z,1019.14
2018-04-06T13:36:03.742Z,1019.14
2018-04-06T13:36:44.308Z,1019.14
2018-04-06T13:37:24.859Z,1019.12
2018-04-06T13:38:05.413Z,1019.08
2018-04-06T13:38:46.042Z,1019.11
2018-04-06T13:39:26.608Z,1019.13
2018-04-06T13:40:07.164Z,1019.06
2018-04-06T13:40:47.737Z,1019.1
2018-04-06T13:41:28.496Z,1019.11
2018-04-06T13:42:09.086Z,1019.1
2018-04-06T13:42:49.670Z,1019.1
2018-04-06T13:43:30.270Z,1019.14
2018-04-06T13:44:10.834Z,1019.08
2018-04-06T13:44:51.393Z,1019.14
2018-04-06T13:45:31.965Z,1019.11
2018-04-06T13:46:12.520Z,1019.09
2018-04-06T13:46:53.105Z,1019.11
2018-04-06T13:47:33.823Z,1019.09
2018-04-06T13:48:14.410Z,1019.04
2018-04-06T13:48:54.967Z,1019.07
2018-04-06T13:49:35.523Z,1019
2018-04-06T13:50:16.103Z,1018.99
2018-04-06T13:50:56.725Z,1018.94
2018-04-06T13:51:37.273Z,1018.94
2018-04-06T13:52:17.846Z,1018.96
2018-04-06T13:52:58.449Z,1018.96
2018-04-06T13:53:39.028Z,1018.97
2018-04-06T13:54:19.642Z,1018.97
2018-04-06T13:55:00.233Z,1018.97
2018-04-06T13:55:40.823Z,1018.97
2018-04-06T13:56:21.414Z,1018.97
2018-04-06T13:57:01.997Z,1018.95
2018-04-06T13:57:42.555Z,1018.93
2018-04-06T13:58:23.147Z,1018.89
2018-04-06T13:59:03.749Z,1018.94
2018-04-06T13:59:44.359Z,1018.89
2018-04-06T14:00:24.912Z,1018.92
2018-04-06T14:01:05.501Z,1018.95
2018-04-06T14:01:46.045Z,1018.92
2018-04-06T14:02:26.628Z,1018.89
2018-04-06T14:03:07.278Z,1018.91
2018-04-06T14:03:47.862Z,1018.88
2018-04-06T14:04:28.467Z,1018.89
2018-04-06T14:05:09.041Z,1018.91
2018-04-06T14:05:49.617Z,1018.9
2018-04-06T14:06:30.216Z,1018.87
2018-04-06T14:07:10.783Z,1018.84
2018-04-06T14:07:51.366Z,1018.86
2018-04-06T14:08:31.975Z,1018.84
2018-04-06T14:09:12.720Z,1018.79
2018-04-06T14:09:53.767Z,1018.81
2018-04-06T14:10:34.612Z,1018.76
2018-04-06T14:11:15.445Z,1018.73
2018-04-06T14:11:55.992Z,1018.73
2018-04-06T14:12:36.562Z,1018.71
2018-04-06T14:13:17.132Z,1018.7
2018-04-06T14:13:57.688Z,1018.72
2018-04-06T14:14:38.285Z,1018.71
2018-04-06T14:15:18.866Z,1018.68
2018-04-06T14:15:59.405Z,1018.71
2018-04-06T14:16:40.104Z,1018.66
2018-04-06T14:17:20.705Z,1018.69
2018-04-06T14:18:01.312Z,1018.72
2018-04-06T14:18:41.888Z,1018.72
2018-04-06T14:19:22.522Z,1018.73
2018-04-06T14:20:03.100Z,1018.73
2018-04-06T14:20:43.678Z,1018.66
2018-04-06T14:21:24.248Z,1018.71
2018-04-06T14:22:04.808Z,1018.66
2018-04-06T14:22:45.378Z,1018.66
2018-04-06T14:23:25.957Z,1018.68
2018-04-06T14:24:06.523Z,1018.67
2018-04-06T14:24:47.092Z,1018.69
2018-04-06T14:25:27.650Z,1018.64
2018-04-06T14:26:08.210Z,1018.68
2018-04-06T14:26:48.766Z,1018.58
2018-04-06T14:27:29.458Z,1018.59
2018-04-06T14:28:10.062Z,1018.59
2018-04-06T14:28:50.663Z,1018.54
2018-04-06T14:29:31.213Z,1018.56
2018-04-06T14:30:11.847Z,1018.59
2018-04-06T14:30:52.533Z,1018.56
2018-04-06T14:31:33.094Z,1018.57
2018-04-06T14:32:13.680Z,1018.53
2018-04-06T14:32:54.367Z,1018.53
2018-04-06T14:33:34.934Z,1018.51
2018-04-06T14:34:15.497Z,1018.48
2018-04-06T14:34:56.083Z,1018.49
2018-04-06T14:35:36.651Z,1018.5
2018-04-06T14:36:17.233Z,1018.46
2018-04-06T14:36:57.800Z,1018.46
2018-04-06T14:37:38.411Z,1018.44
2018-04-06T14:38:18.949Z,1018.48
2018-04-06T14:38:59.532Z,1018.48
2018-04-06T14:39:40.123Z,1018.48
2018-04-06T14:40:20.684Z,1018.45
2018-04-06T14:41:01.269Z,1018.44
2018-04-06T14:41:41.841Z,1018.52
2018-04-06T14:42:22.411Z,1018.47
2018-04-06T14:43:02.985Z,1018.46
2018-04-06T14:43:43.553Z,1018.47
2018-04-06T14:44:24.153Z,1018.47
2018-04-06T14:45:04.743Z,1018.41
2018-04-06T14:45:45.317Z,1018.45
2018-04-06T14:46:25.952Z,1018.45
2018-04-06T14:47:06.529Z,1018.48
2018-04-06T14:47:47.538Z,1018.45
2018-04-06T14:48:28.094Z,1018.4
2018-04-06T14:49:08.675Z,1018.43
2018-04-06T14:49:49.265Z,1018.43
2018-04-06T14:50:29.831Z,1018.4
2018-04-06T14:51:10.407Z,1018.4
2018-04-06T14:51:50.982Z,1018.36
2018-04-06T14:52:31.536Z,1018.38
2018-04-06T14:53:12.129Z,1018.39
2018-04-06T14:53:52.710Z,1018.39
2018-04-06T14:54:33.300Z,1018.36
2018-04-06T14:55:13.892Z,1018.33
2018-04-06T14:55:54.424Z,1018.37
2018-04-06T14:56:35.011Z,1018.37
2018-04-06T14:57:15.563Z,1018.41
2018-04-06T14:57:56.161Z,1018.38
2018-04-06T14:58:36.743Z,1018.35
2018-04-06T14:59:17.313Z,1018.32
2018-04-06T14:59:57.886Z,1018.33
2018-04-06T15:00:38.440Z,1018.37
2018-04-06T15:01:19.028Z,1018.33
2018-04-06T15:01:59.600Z,1018.33
2018-04-06T15:02:40.171Z,1018.36
2018-04-06T15:03:20.731Z,1018.35
2018-04-06T15:04:01.363Z,1018.34
2018-04-06T15:04:41.949Z,1018.33
2018-04-06T15:05:22.546Z,1018.3
2018-04-06T15:06:03.116Z,1018.33
2018-04-06T15:06:43.692Z,1018.33
2018-04-06T15:07:24.268Z,1018.26
2018-04-06T15:08:04.896Z,1018.28
2018-04-06T15:08:45.462Z,1018.3
2018-04-06T15:09:26.024Z,1018.29
2018-04-06T15:10:06.576Z,1018.32
2018-04-06T15:10:47.129Z,1018.33
2018-04-06T15:11:27.756Z,1018.28
2018-04-06T15:12:08.318Z,1018.28
2018-04-06T15:12:48.884Z,1018.25
2018-04-06T15:13:29.457Z,1018.28
2018-04-06T15:14:10.057Z,1018.31
2018-04-06T15:14:50.651Z,1018.29
2018-04-06T15:15:31.228Z,1018.33
2018-04-06T15:16:11.798Z,1018.33
2018-04-06T15:16:52.381Z,1018.29
2018-04-06T15:17:32.941Z,1018.36
2018-04-06T15:18:13.522Z,1018.34
2018-04-06T15:18:54.194Z,1018.34
2018-04-06T15:19:34.798Z,1018.33
2018-04-06T15:20:15.432Z,1018.33
2018-04-06T15:20:56.006Z,1018.33
2018-04-06T15:21:36.601Z,1018.31
2018-04-06T15:22:17.167Z,1018.32
2018-04-06T15:22:57.753Z,1018.32
2018-04-06T15:23:38.351Z,1018.31
2018-04-06T15:24:18.912Z,1018.31
2018-04-06T15:24:59.463Z,1018.3
2018-04-06T15:25:40.032Z,1018.28
2018-04-06T15:26:20.613Z,1018.29
2018-04-06T15:27:01.192Z,1018.28
2018-04-06T15:27:41.770Z,1018.25
2018-04-06T15:28:22.342Z,1018.24
2018-04-06T15:29:02.926Z,1018.23
2018-04-06T15:29:43.497Z,1018.19
2018-04-06T15:30:24.096Z,1018.21
2018-04-06T15:31:04.703Z,1018.21
2018-04-06T15:31:45.366Z,1018.21
2018-04-06T15:32:26.030Z,1018.21
2018-04-06T15:33:06.613Z,1018.24
2018-04-06T15:33:47.194Z,1018.26
2018-04-06T15:34:27.801Z,1018.24
2018-04-06T15:35:08.396Z,1018.3
2018-04-06T15:35:48.978Z,1018.23
2018-04-06T15:36:29.580Z,1018.25
2018-04-06T15:37:10.166Z,1018.26
2018-04-06T15:37:50.748Z,1018.25
2018-04-06T15:38:31.313Z,1018.21
2018-04-06T15:39:11.874Z,1018.23
2018-04-06T15:39:52.441Z,1018.22
2018-04-06T15:40:33.018Z,1018.22
2018-04-06T15:41:13.581Z,1018.19
2018-04-06T15:41:54.183Z,1018.21
2018-04-06T15:42:34.747Z,1018.22
2018-04-06T15:43:15.335Z,1018.17
2018-04-06T15:43:55.930Z,1018.17
2018-04-06T15:44:36.483Z,1018.2
2018-04-06T15:45:17.073Z,1018.17
2018-04-06T15:45:57.648Z,1018.2
2018-04-06T15:46:38.206Z,1018.19
2018-04-06T15:47:18.774Z,1018.21
2018-04-06T15:47:59.342Z,1018.22
2018-04-06T15:48:39.921Z,1018.19
2018-04-06T15:49:20.489Z,1018.22
2018-04-06T15:50:01.062Z,1018.25
2018-04-06T15:50:41.649Z,1018.22
2018-04-06T15:51:22.264Z,1018.2
2018-04-06T15:52:02.849Z,1018.22
2018-04-06T15:52:43.451Z,1018.25
2018-04-06T15:53:24.062Z,1018.23
2018-04-06T15:54:04.860Z,1018.23
2018-04-06T15:54:45.697Z,1018.24
2018-04-06T15:55:26.512Z,1018.21
2018-04-06T15:56:07.187Z,1018.21
2018-04-06T15:56:47.765Z,1018.19
2018-04-06T15:57:28.319Z,1018.22
2018-04-06T15:58:08.993Z,1018.19
2018-04-06T15:58:49.582Z,1018.22
2018-04-06T15:59:30.438Z,1018.21
2018-04-06T16:00:11.445Z,1018.22
2018-04-06T16:00:52.175Z,1018.2
2018-04-06T16:01:33.023Z,1018.21
2018-04-06T16:02:14.140Z,1018.18
2018-04-06T16:02:54.786Z,1018.2
2018-04-06T16:03:35.633Z,1018.2
2018-04-06T16:04:16.480Z,1018.21
2018-04-06T16:04:57.275Z,1018.18
2018-04-06T16:05:37.837Z,1018.18
2018-04-06T16:06:18.777Z,1018.17
2018-04-06T16:06:59.663Z,1018.18
2018-04-06T16:07:40.711Z,1018.2
2018-04-06T16:08:21.294Z,1018.19
2018-04-06T16:09:01.870Z,1018.21
2018-04-06T16:09:42.448Z,1018.21
2018-04-06T16:10:23.729Z,1018.14
2018-04-06T16:11:04.633Z,1018.13
2018-04-06T16:11:45.314Z,1018.13
2018-04-06T16:12:26.142Z,1018.15
2018-04-06T16:13:07.461Z,1018.18
2018-04-06T16:13:48.689Z,1018.13
2018-04-06T16:14:29.676Z,1018.14
2018-04-06T16:15:10.408Z,1018.14
2018-04-06T16:15:50.973Z,1018.16
2018-04-06T16:16:31.669Z,1018.1
2018-04-06T16:17:12.431Z,1018.08
2018-04-06T16:17:52.993Z,1018.11
2018-04-06T16:18:33.736Z,1018.06
2018-04-06T16:19:14.928Z,1018.1
2018-04-06T16:19:55.719Z,1018.11
2018-04-06T16:20:37.852Z,1018.15
2018-04-06T16:21:19.122Z,1018.14
2018-04-06T16:22:00.227Z,1018.11
2018-04-06T16:22:41.137Z,1018.12
2018-04-06T16:23:22.229Z,1018.11
2018-04-06T16:24:03.094Z,1018.11
2018-04-06T16:24:43.968Z,1018.1
2018-04-06T16:25:24.763Z,1018.13
2018-04-06T16:26:06.156Z,1018.12
2018-04-06T16:26:47.244Z,1018.12
2018-04-06T16:27:28.171Z,1018.09
2018-04-06T16:28:09.162Z,1018.12
2018-04-06T16:28:50.056Z,1018.14
2018-04-06T16:29:30.973Z,1018.09
2018-04-06T16:30:11.943Z,1018.07
2018-04-06T16:30:53.137Z,1018.11
2018-04-06T16:31:34.285Z,1018.07
2018-04-06T16:32:15.393Z,1018.09
2018-04-06T16:32:56.507Z,1018.11
2018-04-06T16:33:37.463Z,1018.07
2018-04-06T16:34:18.655Z,1018.1
2018-04-06T16:34:59.362Z,1018.09
2018-04-06T16:35:40.253Z,1018.1
2018-04-06T16:36:21.356Z,1018.09
2018-04-06T16:37:02.425Z,1018.06
2018-04-06T16:37:42.985Z,1018.08
2018-04-06T16:38:23.588Z,1018.11
2018-04-06T16:39:05.393Z,1018.06
2018-04-06T16:39:46.019Z,1018.07
2018-04-06T16:40:26.598Z,1018.06
2018-04-06T16:41:07.318Z,1018.07
2018-04-06T16:41:47.804Z,1018.08
2018-04-06T16:42:28.398Z,1018.14
2018-04-06T16:43:08.973Z,1018.12
2018-04-06T16:43:49.544Z,1018.13
2018-04-06T16:44:30.136Z,1018.19
2018-04-06T16:45:10.717Z,1018.14
2018-04-06T16:45:51.274Z,1018.14
2018-04-06T16:46:32.025Z,1018.18
2018-04-06T16:47:13.143Z,1018.18
2018-04-06T16:47:54.105Z,1018.17
2018-04-06T16:48:34.670Z,1018.15
2018-04-06T16:49:15.248Z,1018.15
2018-04-06T16:49:55.846Z,1018.15
2018-04-06T16:50:36.566Z,1018.17
2018-04-06T16:51:17.128Z,1018.18
2018-04-06T16:51:57.719Z,1018.18
2018-04-06T16:52:38.315Z,1018.12
2018-04-06T16:53:18.867Z,1018.13
2018-04-06T16:53:59.509Z,1018.11
2018-04-06T16:54:40.060Z,1018.11
2018-04-06T16:55:20.648Z,1018.12
2018-04-06T16:56:01.221Z,1018.07
2018-04-06T16:56:41.827Z,1018.08
2018-04-06T16:57:22.394Z,1018.08
2018-04-06T16:58:02.964Z,1018.1
2018-04-06T16:58:43.529Z,1018.04
2018-04-06T16:59:24.105Z,1018.08
2018-04-06T17:00:04.771Z,1018.07
2018-04-06T17:00:45.377Z,1018.04
2018-04-06T17:01:25.956Z,1018.07
2018-04-06T17:02:06.513Z,1018.08
2018-04-06T17:02:47.076Z,1018.09
2018-04-06T17:03:27.655Z,1018.12
2018-04-06T17:04:08.228Z,1018.02
2018-04-06T17:04:48.994Z,1018.09
2018-04-06T17:05:29.556Z,1018.07
2018-04-06T17:06:10.118Z,1018.04
2018-04-06T17:06:50.780Z,1018.09
2018-04-06T17:07:31.386Z,1018.04
2018-04-06T17:08:11.951Z,1018.1
2018-04-06T17:08:52.522Z,1018.13
2018-04-06T17:09:33.090Z,1018.11
2018-04-06T17:10:13.716Z,1018.09
2018-04-06T17:10:54.324Z,1018.13
2018-04-06T17:11:34.909Z,1018.1
2018-04-06T17:12:15.482Z,1018.1
2018-04-06T17:12:56.174Z,1018.15
2018-04-06T17:13:36.734Z,1018.15
2018-04-06T17:14:17.400Z,1018.15
2018-04-06T17:14:57.952Z,1018.17
2018-04-06T17:15:38.564Z,1018.15
2018-04-06T17:16:19.208Z,1018.19
2018-04-06T17:16:59.787Z,1018.23
2018-04-06T17:17:40.406Z,1018.23
2018-04-06T17:18:20.970Z,1018.2
2018-04-06T17:19:01.555Z,1018.2
2018-04-06T17:19:42.122Z,1018.25
2018-04-06T17:20:22.716Z,1018.24
2018-04-06T17:21:03.448Z,1018.26
2018-04-06T17:21:44.008Z,1018.24
2018-04-06T17:22:24.568Z,1018.27
2018-04-06T17:23:05.134Z,1018.26
2018-04-06T17:23:45.816Z,1018.25
2018-04-06T17:24:26.396Z,1018.28
2018-04-06T17:25:07.005Z,1018.29
2018-04-06T17:25:47.570Z,1018.29
2018-04-06T17:26:28.226Z,1018.33
2018-04-06T17:27:08.847Z,1018.29
2018-04-06T17:27:49.434Z,1018.31
2018-04-06T17:28:30.022Z,1018.31
2018-04-06T17:29:10.594Z,1018.33
2018-04-06T17:29:51.181Z,1018.37
2018-04-06T17:30:31.868Z,1018.35
2018-04-06T17:31:12.423Z,1018.36
2018-04-06T17:31:53.073Z,1018.34
2018-04-06T17:32:33.653Z,1018.38
2018-04-06T17:33:14.252Z,1018.37
2018-04-06T17:33:54.847Z,1018.36
2018-04-06T17:34:35.457Z,1018.35
2018-04-06T17:35:16.173Z,1018.35
2018-04-06T17:35:56.758Z,1018.35
2018-04-06T17:36:37.362Z,1018.35
2018-04-06T17:37:17.953Z,1018.4
2018-04-06T17:37:58.510Z,1018.37
2018-04-06T17:38:39.169Z,1018.37
2018-04-06T17:39:19.748Z,1018.35
2018-04-06T17:40:00.324Z,1018.37
2018-04-06T17:40:40.900Z,1018.36
2018-04-06T17:41:21.490Z,1018.37
2018-04-06T17:42:02.059Z,1018.34
2018-04-06T17:42:42.653Z,1018.39
2018-04-06T17:43:23.199Z,1018.39
2018-04-06T17:44:03.836Z,1018.38
2018-04-06T17:44:44.417Z,1018.43
2018-04-06T17:45:24.954Z,1018.43
2018-04-06T17:46:05.845Z,1018.42
2018-04-06T17:46:46.492Z,1018.42
2018-04-06T17:47:27.123Z,1018.43
2018-04-06T17:48:07.685Z,1018.42
2018-04-06T17:48:48.251Z,1018.4
2018-04-06T17:49:28.902Z,1018.45
2018-04-06T17:50:09.503Z,1018.44
2018-04-06T17:50:50.055Z,1018.44
2018-04-06T17:51:30.626Z,1018.41
2018-04-06T17:52:11.234Z,1018.43
2018-04-06T17:52:51.806Z,1018.42
2018-04-06T17:53:32.368Z,1018.43
2018-04-06T17:54:12.928Z,1018.44
2018-04-06T17:54:53.481Z,1018.43
2018-04-06T17:55:34.042Z,1018.46
2018-04-06T17:56:14.599Z,1018.44
2018-04-06T17:56:55.179Z,1018.44
2018-04-06T17:57:35.738Z,1018.45
2018-04-06T17:58:16.307Z,1018.48
2018-04-06T17:58:56.860Z,1018.48
2018-04-06T17:59:37.430Z,1018.46
2018-04-06T18:00:18.027Z,1018.48
2018-04-06T18:00:58.582Z,1018.49
2018-04-06T18:01:39.167Z,1018.47
2018-04-06T18:02:19.747Z,1018.47
2018-04-06T18:03:00.319Z,1018.48
2018-04-06T18:03:40.894Z,1018.53
2018-04-06T18:04:21.440Z,1018.48
2018-04-06T18:05:02.047Z,1018.5
2018-04-06T18:05:42.793Z,1018.49
2018-04-06T18:06:23.377Z,1018.51
2018-04-06T18:07:03.957Z,1018.5
2018-04-06T18:07:44.520Z,1018.51
2018-04-06T18:08:25.087Z,1018.46
2018-04-06T18:09:05.668Z,1018.46
2018-04-06T18:09:46.273Z,1018.44
2018-04-06T18:10:26.857Z,1018.52
2018-04-06T18:11:07.412Z,1018.49
2018-04-06T18:11:47.982Z,1018.53
2018-04-06T18:12:28.546Z,1018.52
2018-04-06T18:13:09.114Z,1018.55
2018-04-06T18:13:49.826Z,1018.57
2018-04-06T18:14:31.541Z,1018.59
2018-04-06T18:15:12.044Z,1018.61
2018-04-06T18:15:53.444Z,1018.6
2018-04-06T18:16:35.166Z,1018.61
2018-04-06T18:17:16.492Z,1018.57
2018-04-06T18:17:57.721Z,1018.64
2018-04-06T18:18:38.951Z,1018.62
2018-04-06T18:19:19.789Z,1018.62
2018-04-06T18:20:00.962Z,1018.62
2018-04-06T18:20:42.763Z,1018.62
2018-04-06T18:21:24.126Z,1018.62
2018-04-06T18:22:05.296Z,1018.6
2018-04-06T18:22:46.636Z,1018.61
2018-04-06T18:23:27.698Z,1018.64
2018-04-06T18:24:08.965Z,1018.62
2018-04-06T18:24:50.172Z,1018.64
2018-04-06T18:25:31.433Z,1018.68
2018-04-06T18:26:12.770Z,1018.65
2018-04-06T18:26:54.042Z,1018.65
2018-04-06T18:27:35.333Z,1018.66
2018-04-06T18:28:16.357Z,1018.73
2018-04-06T18:28:58.311Z,1018.66
2018-04-06T18:29:39.734Z,1018.69
2018-04-06T18:30:20.840Z,1018.68
2018-04-06T18:31:02.191Z,1018.69
2018-04-06T18:31:43.394Z,1018.69
2018-04-06T18:32:24.686Z,1018.69
2018-04-06T18:33:05.903Z,1018.71
2018-04-06T18:33:47.195Z,1018.72
2018-04-06T18:34:28.231Z,1018.69
2018-04-06T18:35:09.556Z,1018.72
2018-04-06T18:35:51.595Z,1018.67
2018-04-06T18:36:32.783Z,1018.67
2018-04-06T18:37:13.743Z,1018.7